Time;durP1;ratioP1;P1;durP2;ratioP2;P2;SDS_P1;SDS_P2;PMS_P1;PMS_P2;Temp;Humidity;BMP_temperature;BMP_pressure;BME280_temperature;BME280_humidity;BME280_pressure;Samples;Min_cycle;Max_cycle;Signal;HPM_P1;HPM_P2
2022/09/11 00:01:29;;;;;;;6.63;6.03;;;;;;;16.49;81.85;101836.25;4999844;28;20387;-80
2022/09/11 00:03:55;;;;;;;6.30;5.70;;;;;;;16.47;81.87;101838.09;4983454;28;20057;-81
2022/09/11 00:06:22;;;;;;;5.65;5.15;;;;;;;16.47;81.87;101839.91;5022632;28;20343;-80
2022/09/11 00:08:52;;;;;;;6.00;5.40;;;;;;;16.45;81.82;101834.69;5038571;28;20029;-80
2022/09/11 00:11:19;;;;;;;6.22;5.72;;;;;;;16.44;81.88;101837.41;5008134;28;20030;-80
2022/09/11 00:13:48;;;;;;;6.63;6.13;;;;;;;16.41;81.73;101838.44;4998812;28;20057;-80
2022/09/11 00:16:25;;;;;;;6.13;5.72;;;;;;;16.42;81.87;101841.91;5036186;28;20021;-80
2022/09/11 00:18:52;;;;;;;6.50;5.90;;;;;;;16.40;81.92;101841.13;5038006;28;20040;-80
2022/09/11 00:21:19;;;;;;;6.35;5.75;;;;;;;16.38;81.99;101838.56;5008494;28;20052;-81
2022/09/11 00:23:47;;;;;;;7.25;6.65;;;;;;;16.37;82.03;101831.59;4998610;28;20060;-80
2022/09/11 00:26:13;;;;;;;7.10;6.35;;;;;;;16.36;82.00;101832.50;5018662;28;20069;-80
2022/09/11 00:28:38;;;;;;;7.28;6.63;;;;;;;16.34;82.16;101837.00;5018675;28;20034;-80
2022/09/11 00:31:07;;;;;;;7.57;6.55;;;;;;;16.32;82.15;101836.25;5024940;28;20092;-81
2022/09/11 00:33:34;;;;;;;6.88;6.28;;;;;;;16.32;81.99;101844.16;5056013;28;20382;-80
2022/09/11 00:36:03;;;;;;;7.35;6.65;;;;;;;16.30;82.04;101838.94;5047523;28;20066;-80
2022/09/11 00:38:31;;;;;;;6.45;5.95;;;;;;;16.30;81.95;101835.47;5038017;28;20056;-80
2022/09/11 00:40:59;;;;;;;6.90;6.32;;;;;;;16.28;82.08;101832.00;5030728;28;20026;-80
2022/09/11 00:43:27;;;;;;;6.20;5.80;;;;;;;16.28;81.93;101832.88;5001836;28;20037;-80
2022/09/11 00:46:03;;;;;;;6.27;5.77;;;;;;;16.27;82.22;101833.81;5018586;28;20280;-81
2022/09/11 00:48:32;;;;;;;6.78;6.28;;;;;;;16.26;82.29;101833.88;5036019;28;20060;-80
2022/09/11 00:51:02;;;;;;;7.03;6.43;;;;;;;16.24;81.90;101833.09;5021005;28;20041;-80
2022/09/11 00:53:32;;;;;;;6.35;5.95;;;;;;;16.24;82.04;101828.66;5055621;28;20091;-80
2022/09/11 00:56:02;;;;;;;6.78;6.28;;;;;;;16.24;82.08;101833.09;5035315;28;20024;-81
2022/09/11 00:58:31;;;;;;;10.50;6.47;;;;;;;16.22;82.08;101835.81;5035610;28;20037;-80
2022/09/11 01:04:22;;;;;;;7.03;6.43;;;;;;;16.20;82.06;101823.63;5026846;28;20076;-80
2022/09/11 01:06:53;;;;;;;6.88;6.38;;;;;;;16.18;82.03;101828.97;5000638;28;20030;-80
2022/09/11 01:09:19;;;;;;;6.47;5.95;;;;;;;16.17;82.05;101829.91;4998999;28;20471;-80
2022/09/11 01:12:08;;;;;;;7.32;6.68;;;;;;;16.16;82.09;101835.28;4995322;28;20658;-80
2022/09/11 01:14:46;;;;;;;7.53;6.93;;;;;;;16.14;82.04;101832.69;5037564;28;20403;-80
2022/09/11 01:17:45;;;;;;;7.30;6.70;;;;;;;16.14;82.32;101837.13;5036982;28;20021;-80
2022/09/11 01:20:29;;;;;;;7.10;6.40;;;;;;;16.11;82.26;101836.31;5037417;28;20041;-80
2022/09/11 01:23:19;;;;;;;8.57;6.32;;;;;;;16.11;82.34;101841.63;5032954;28;20043;-80
2022/09/11 01:25:47;;;;;;;6.68;6.18;;;;;;;16.09;82.12;101840.84;5017285;28;20033;-80
2022/09/11 01:28:17;;;;;;;6.60;6.10;;;;;;;16.08;82.08;101836.50;5018218;28;20112;-80
2022/09/11 01:30:48;;;;;;;7.32;6.72;;;;;;;16.06;82.05;101840.13;5001158;28;20033;-80
2022/09/11 01:33:30;;;;;;;7.88;7.18;;;;;;;16.05;82.27;101838.44;5034287;28;20070;-80
2022/09/11 01:36:12;;;;;;;7.20;6.55;;;;;;;16.05;82.16;101839.28;5032206;28;20284;-81
2022/09/11 01:38:45;;;;;;;7.50;6.80;;;;;;;16.03;82.50;101845.56;4998281;28;20034;-80
2022/09/11 01:41:16;;;;;;;7.32;6.72;;;;;;;16.02;82.04;101851.78;4997952;28;20336;-80
2022/09/11 01:43:53;;;;;;;7.35;6.57;;;;;;;16.01;82.30;101845.66;5054603;28;20051;-80
2022/09/11 01:46:21;;;;;;;6.95;6.40;;;;;;;15.99;82.35;101842.22;5038055;28;20058;-80
2022/09/11 01:49:02;;;;;;;8.23;7.53;;;;;;;15.98;82.44;101837.84;5054181;28;20037;-81
2022/09/11 01:51:30;;;;;;;7.20;6.63;;;;;;;15.97;82.37;101844.09;5021195;28;20025;-80
2022/09/11 01:53:58;;;;;;;8.20;6.82;;;;;;;15.97;82.24;101832.63;5017754;28;20034;-80
2022/09/11 01:56:33;;;;;;;8.23;6.72;;;;;;;15.96;82.50;101838.88;5019303;28;20034;-80
2022/09/11 01:59:03;;;;;;;7.80;7.07;;;;;;;15.95;82.10;101842.44;5040390;28;20037;-80
2022/09/11 02:01:38;;;;;;;8.27;7.55;;;;;;;15.93;82.29;101832.81;5058364;28;20025;-81
2022/09/11 02:04:06;;;;;;;7.80;7.10;;;;;;;15.92;82.46;101836.38;5033004;28;20032;-80
2022/09/11 02:06:45;;;;;;;7.55;6.95;;;;;;;15.90;82.13;101838.22;5040991;28;20068;-80
2022/09/11 02:09:15;;;;;;;7.35;6.75;;;;;;;15.89;82.49;101833.84;5039853;28;20029;-80
2022/09/11 02:11:44;;;;;;;7.90;7.18;;;;;;;15.88;82.24;101837.44;5052334;28;20017;-80
2022/09/11 02:14:24;;;;;;;8.27;7.53;;;;;;;15.87;82.19;101842.78;5001175;28;20044;-80
2022/09/11 02:16:52;;;;;;;8.23;7.53;;;;;;;15.86;82.12;101849.88;5017780;28;20244;-79
2022/09/11 02:19:22;;;;;;;7.85;7.18;;;;;;;15.84;82.13;101851.69;5041282;28;20332;-80
2022/09/11 02:21:49;;;;;;;7.30;6.60;;;;;;;15.83;82.43;101852.66;5037898;28;20324;-79
2022/09/11 02:24:15;;;;;;;5.82;5.30;;;;;;;15.82;82.09;101852.72;5019352;28;20237;-80
2022/09/11 02:26:45;;;;;;;5.85;5.40;;;;;;;15.81;82.32;101856.25;5013055;28;20036;-79
2022/09/11 02:29:12;;;;;;;5.35;4.95;;;;;;;15.80;82.05;101857.22;5041076;28;20047;-79
2022/09/11 02:31:39;;;;;;;5.80;5.30;;;;;;;15.79;82.14;101859.00;5024328;28;20375;-79
2022/09/11 02:34:05;;;;;;;5.43;5.05;;;;;;;15.78;81.99;101859.06;5040796;28;20300;-79
2022/09/11 02:36:30;;;;;;;5.90;5.40;;;;;;;15.76;82.01;101858.28;5008730;28;20063;-79
2022/09/11 02:39:10;;;;;;;5.77;5.37;;;;;;;15.76;82.38;101856.50;5027446;28;20040;-80
2022/09/11 02:41:45;;;;;;;6.20;5.70;;;;;;;15.73;82.15;101857.47;5021507;28;20627;-79
2022/09/11 02:44:29;;;;;;;6.22;5.72;;;;;;;15.72;82.30;101852.25;5021143;28;20107;-81
2022/09/11 02:47:17;;;;;;;6.70;6.03;;;;;;;15.72;82.28;101854.91;5038578;28;20030;-81
2022/09/11 02:49:50;;;;;;;6.82;6.32;;;;;;;15.70;82.32;101865.53;5020727;28;20105;-81
2022/09/11 02:52:16;;;;;;;6.57;6.07;;;;;;;15.69;82.35;101866.44;5020136;28;20039;-81
2022/09/11 02:54:47;;;;;;;6.88;6.28;;;;;;;15.68;82.04;101863.88;5020580;28;20048;-81
2022/09/11 02:57:19;;;;;;;7.45;6.70;;;;;;;15.66;82.11;101860.44;5020086;28;20033;-81
2022/09/11 02:59:52;;;;;;;7.22;6.72;;;;;;;15.64;82.26;101868.44;5038076;28;20359;-81
2022/09/11 03:02:17;;;;;;;7.68;6.97;;;;;;;15.64;82.12;101870.22;5057707;28;20230;-81
2022/09/11 03:04:43;;;;;;;7.15;6.53;;;;;;;15.63;82.21;101865.88;5039991;28;20245;-81
2022/09/11 03:07:08;;;;;;;7.30;6.70;;;;;;;15.61;82.11;101868.59;5003598;28;20088;-81
2022/09/11 03:09:34;;;;;;;6.80;6.15;;;;;;;15.60;81.99;101866.03;5019548;28;20083;-81
2022/09/11 03:12:01;;;;;;;5.78;5.25;;;;;;;15.59;82.06;101864.28;5023115;28;20322;-81
2022/09/11 03:14:26;;;;;;;5.22;4.82;;;;;;;15.58;82.01;101863.44;5038209;28;20301;-82
2022/09/11 03:16:52;;;;;;;5.00;4.70;;;;;;;15.57;82.23;101867.00;5022801;28;20033;-81
2022/09/11 03:19:17;;;;;;;5.43;5.03;;;;;;;15.56;82.21;101870.59;5018583;28;20095;-81
2022/09/11 03:21:43;;;;;;;6.20;5.70;;;;;;;15.55;82.23;101871.50;5039569;28;20057;-81
2022/09/11 03:24:08;;;;;;;6.47;5.97;;;;;;;15.54;82.37;101873.28;5009049;28;20067;-81
2022/09/11 03:26:35;;;;;;;7.32;6.63;;;;;;;15.53;82.15;101862.78;5015001;28;20364;-81
2022/09/11 03:29:01;;;;;;;7.25;6.47;;;;;;;15.52;82.21;101864.59;5010817;28;20316;-81
2022/09/11 03:31:27;;;;;;;7.32;6.72;;;;;;;15.52;82.02;101869.00;5020176;28;20067;-81
2022/09/11 03:33:52;;;;;;;7.85;7.15;;;;;;;15.50;82.28;101862.94;5010326;28;20036;-81
2022/09/11 03:36:19;;;;;;;8.43;7.63;;;;;;;15.48;82.08;101856.84;5039376;28;20062;-81
2022/09/11 03:38:45;;;;;;;8.27;7.47;;;;;;;15.49;82.02;101861.22;5006728;28;20062;-81
2022/09/11 03:41:10;;;;;;;8.55;7.75;;;;;;;15.47;82.05;101857.78;5019306;28;20303;-81
2022/09/11 03:43:36;;;;;;;8.38;7.70;;;;;;;15.45;81.96;101860.50;5051246;28;20044;-81
2022/09/11 03:46:02;;;;;;;8.45;7.65;;;;;;;15.44;82.25;101861.41;5037027;28;20195;-81
2022/09/11 03:48:28;;;;;;;8.85;8.05;;;;;;;15.44;82.15;101858.78;5038772;28;20322;-81
2022/09/11 03:50:53;;;;;;;9.18;8.38;;;;;;;15.43;82.29;101861.50;5026094;28;20104;-81
2022/09/11 03:53:20;;;;;;;8.55;7.82;;;;;;;15.41;82.14;101869.50;5003108;28;20044;-81
2022/09/11 03:55:45;;;;;;;8.98;8.18;;;;;;;15.39;82.33;101866.06;5037011;28;20037;-81
2022/09/11 03:58:11;;;;;;;8.65;7.95;;;;;;;15.38;82.18;101866.13;4986440;28;20079;-81
2022/09/11 04:00:44;;;;;;;8.52;7.82;;;;;;;15.38;81.96;101868.78;5004653;28;20347;-81
2022/09/11 04:03:10;;;;;;;9.80;8.90;;;;;;;15.35;82.12;101870.63;5056567;28;20176;-81
2022/09/11 04:05:36;;;;;;;8.57;7.88;;;;;;;15.34;82.04;101862.78;5006879;28;20092;-81
2022/09/11 04:08:02;;;;;;;9.07;8.20;;;;;;;15.32;82.20;101865.47;5022179;28;20103;-81
2022/09/11 04:10:28;;;;;;;8.60;7.85;;;;;;;15.32;81.95;101872.53;5037938;28;20332;-81
2022/09/11 04:12:53;;;;;;;8.05;7.38;;;;;;;15.31;82.12;101865.53;5022194;28;20048;-81
2022/09/11 04:15:19;;;;;;;8.45;7.75;;;;;;;15.29;82.25;101868.25;5038049;28;20040;-81
2022/09/11 04:17:45;;;;;;;8.18;7.47;;;;;;;15.27;82.11;101862.19;5006155;28;20152;-81
2022/09/11 04:20:11;;;;;;;8.32;7.55;;;;;;;15.27;81.96;101871.88;5005981;28;20053;-81
2022/09/11 04:22:38;;;;;;;8.27;7.47;;;;;;;15.26;81.97;101873.69;5015615;28;20053;-81
2022/09/11 04:25:03;;;;;;;8.13;7.50;;;;;;;15.25;82.16;101873.75;4996552;28;20047;-81
2022/09/11 04:27:29;;;;;;;8.07;7.35;;;;;;;15.24;82.08;101878.13;5038608;28;20037;-81
2022/09/11 04:29:54;;;;;;;7.95;7.15;;;;;;;15.22;82.06;101880.00;4993324;28;20451;-81
2022/09/11 04:32:21;;;;;;;8.05;7.25;;;;;;;15.22;81.92;101892.34;4999197;28;20044;-81
2022/09/11 04:34:47;;;;;;;7.43;6.82;;;;;;;15.21;82.00;101895.88;5020699;28;20033;-82
2022/09/11 04:37:12;;;;;;;7.85;7.13;;;;;;;15.19;82.18;101893.34;5002181;28;20103;-81
2022/09/11 04:39:37;;;;;;;7.82;7.07;;;;;;;15.16;82.13;101894.31;5002010;28;20053;-81
2022/09/11 04:42:03;;;;;;;7.00;6.30;;;;;;;15.16;81.92;101899.59;5018492;28;20048;-81
2022/09/11 04:44:29;;;;;;;6.45;5.95;;;;;;;15.16;82.22;101898.72;5019869;28;20033;-82
2022/09/11 04:46:55;;;;;;;5.53;5.13;;;;;;;15.14;82.04;101895.31;5021465;28;20041;-81
2022/09/11 04:49:21;;;;;;;5.28;4.93;;;;;;;15.11;82.12;101888.38;5005184;28;20236;-81
2022/09/11 04:51:47;;;;;;;5.80;5.30;;;;;;;15.12;82.06;101897.16;4982273;28;20355;-81
2022/09/11 04:54:20;;;;;;;5.75;5.10;;;;;;;15.10;81.85;101905.13;4998927;28;20243;-81
2022/09/11 04:56:45;;;;;;;6.63;6.13;;;;;;;15.09;82.00;101903.41;5037806;28;20391;-81
2022/09/11 04:59:18;;;;;;;6.32;5.90;;;;;;;15.08;81.99;101906.97;5025039;28;20029;-81
2022/09/11 05:01:45;;;;;;;6.47;5.88;;;;;;;15.08;81.81;101916.66;5042740;28;20042;-81
2022/09/11 05:04:11;;;;;;;6.00;5.60;;;;;;;15.07;81.95;101914.97;5031420;28;20072;-81
2022/09/11 05:06:37;;;;;;;6.35;5.80;;;;;;;15.06;82.15;101918.50;5036898;28;20251;-81
2022/09/11 05:09:05;;;;;;;6.05;5.55;;;;;;;15.04;82.24;101921.22;5054263;28;20067;-81
2022/09/11 05:11:31;;;;;;;5.45;5.05;;;;;;;15.04;81.84;101925.63;5035847;28;20041;-81
2022/09/11 05:14:00;;;;;;;5.90;5.45;;;;;;;15.02;81.76;101927.47;5054338;28;20039;-81
2022/09/11 05:16:27;;;;;;;5.00;4.60;;;;;;;15.01;82.11;101931.91;5054011;28;20144;-81
2022/09/11 05:18:54;;;;;;;4.95;4.57;;;;;;;15.00;81.72;101929.31;5036305;28;20041;-81
2022/09/11 05:21:21;;;;;;;4.65;4.35;;;;;;;15.00;81.70;101932.81;5008471;28;20283;-82
2022/09/11 05:23:50;;;;;;;4.60;4.30;;;;;;;14.99;81.81;101941.66;5000593;28;20029;-81
2022/09/11 05:26:16;;;;;;;;;;;;;;;14.97;81.92;101936.44;5031482;28;20108;-81
2022/09/11 05:28:42;;;;;;;4.80;4.32;;;;;;;14.97;81.85;101938.22;5020474;28;20017;-81
2022/09/11 05:31:27;;;;;;;4.60;4.30;;;;;;;14.95;81.73;101945.34;5020611;28;20301;-81
2022/09/11 05:33:57;;;;;;;5.28;4.97;;;;;;;14.93;81.92;101950.66;5021000;28;20041;-81
2022/09/11 05:36:23;;;;;;;5.47;4.97;;;;;;;14.92;81.76;101953.41;5016951;28;20363;-81
2022/09/11 05:38:49;;;;;;;5.70;5.25;;;;;;;14.92;81.75;101951.59;5058389;28;20021;-83
2022/09/11 05:41:15;;;;;;;4.93;4.55;;;;;;;14.92;81.80;101950.75;5031138;28;20291;-81
2022/09/11 05:43:41;;;;;;;4.40;4.10;;;;;;;14.91;81.92;101956.94;5020520;28;20025;-81
2022/09/11 05:46:10;;;;;;;4.30;3.92;;;;;;;14.91;81.93;101956.94;5026268;28;20032;-81
2022/09/11 05:48:36;;;;;;;3.10;2.90;;;;;;;14.88;81.94;101955.31;5039993;28;20036;-81
2022/09/11 05:51:06;;;;;;;2.92;2.72;;;;;;;14.88;81.88;101950.03;5023178;28;20060;-81
2022/09/11 05:53:32;;;;;;;3.00;2.80;;;;;;;14.88;81.75;101950.03;5057831;28;20036;-81
2022/09/11 05:56:04;;;;;;;3.13;2.92;;;;;;;14.87;82.00;101956.22;5035819;28;20339;-81
2022/09/11 05:58:30;;;;;;;3.15;2.95;;;;;;;14.87;81.73;101958.84;5057840;28;20032;-81
2022/09/11 06:01:13;;;;;;;2.95;2.75;;;;;;;14.87;82.03;101961.47;5034830;28;20069;-83
2022/09/11 06:03:39;;;;;;;2.97;2.78;;;;;;;14.87;81.55;101963.28;5020227;28;20022;-81
2022/09/11 06:06:09;;;;;;;3.42;3.15;;;;;;;14.87;81.57;101956.22;5000176;28;20086;-81
2022/09/11 06:08:36;;;;;;;3.60;3.30;;;;;;;14.88;82.01;101962.34;5009001;28;20351;-81
2022/09/11 06:11:05;;;;;;;3.45;3.25;;;;;;;14.87;81.73;101964.13;5019487;28;20376;-81
2022/09/11 06:13:34;;;;;;;4.38;4.03;;;;;;;14.88;81.76;101971.13;5047794;28;20100;-81
2022/09/11 06:15:59;;;;;;;4.13;3.83;;;;;;;14.88;81.88;101964.97;5030716;28;20033;-81
2022/09/11 06:18:25;;;;;;;4.30;4.00;;;;;;;14.90;81.99;101963.16;5014950;28;20036;-81
2022/09/11 06:20:57;;;;;;;4.63;4.22;;;;;;;14.89;82.17;101962.28;5056824;28;20049;-81
2022/09/11 06:23:23;;;;;;;4.18;3.88;;;;;;;14.90;82.31;101964.00;5035642;28;20033;-81
2022/09/11 06:25:48;;;;;;;4.57;4.28;;;;;;;14.90;82.09;101957.88;5002078;28;20034;-81
2022/09/11 06:28:13;;;;;;;4.20;3.90;;;;;;;14.91;82.28;101955.16;5019006;28;20084;-81
2022/09/11 06:30:40;;;;;;;4.85;4.50;;;;;;;14.92;82.29;101962.16;5002895;28;20104;-81
2022/09/11 06:33:05;;;;;;;5.63;5.13;;;;;;;14.93;82.35;101963.00;5027250;28;20365;-81
2022/09/11 06:35:32;;;;;;;6.55;5.95;;;;;;;14.93;82.38;101955.94;4999042;28;20018;-81
2022/09/11 06:37:57;;;;;;;6.68;6.07;;;;;;;14.93;82.66;101961.22;5001985;28;20102;-81
2022/09/11 06:40:23;;;;;;;7.57;6.95;;;;;;;14.95;82.87;101962.03;5002578;28;20061;-81
2022/09/11 06:42:49;;;;;;;7.75;7.05;;;;;;;14.95;82.66;101958.53;5029915;28;20033;-81
2022/09/11 06:45:15;;;;;;;7.68;6.97;;;;;;;14.96;82.66;101957.63;4983343;28;20056;-81
2022/09/11 06:47:41;;;;;;;8.35;7.55;;;;;;;14.95;82.97;101962.03;5005357;28;20032;-81
2022/09/11 06:50:06;;;;;;;8.50;7.70;;;;;;;14.97;82.80;101957.56;4985884;28;20042;-81
2022/09/11 06:52:33;;;;;;;9.50;8.60;;;;;;;14.97;82.69;101954.03;5027370;28;20033;-81
2022/09/11 06:55:00;;;;;;;9.50;8.50;;;;;;;14.99;83.00;101954.84;4999259;28;20344;-81
2022/09/11 06:57:27;;;;;;;8.50;7.70;;;;;;;15.00;83.00;101955.72;5033278;28;20068;-82
2022/09/11 06:59:52;;;;;;;9.68;8.68;;;;;;;15.01;83.05;101949.50;5017821;28;20025;-81
2022/09/11 07:02:18;;;;;;;10.65;9.00;;;;;;;15.02;83.06;101956.50;5015121;28;20038;-81
2022/09/11 07:04:43;;;;;;;9.85;8.85;;;;;;;15.04;83.36;101959.94;5010496;28;20029;-81
2022/09/11 07:07:09;;;;;;;12.38;10.57;;;;;;;15.05;83.54;101959.03;5016111;28;20099;-82
2022/09/11 07:09:34;;;;;;;13.55;11.27;;;;;;;15.05;83.64;101959.03;5011831;28;20040;-81
2022/09/11 07:12:00;;;;;;;14.82;11.80;;;;;;;15.07;83.70;101965.94;5028426;28;20364;-82
2022/09/11 07:14:25;;;;;;;14.05;11.25;;;;;;;15.09;83.93;101971.16;5016806;28;20056;-82
2022/09/11 07:16:51;;;;;;;11.60;10.27;;;;;;;15.09;83.81;101972.00;5017564;28;20117;-81
2022/09/11 07:19:17;;;;;;;17.38;11.95;;;;;;;15.12;84.09;101971.88;4999025;28;20317;-81
2022/09/11 07:21:43;;;;;;;14.60;13.10;;;;;;;15.15;84.27;101974.41;5001539;28;20241;-81
2022/09/11 07:24:08;;;;;;;26.70;18.20;;;;;;;15.20;84.67;101981.25;5039931;28;20092;-82
2022/09/11 07:26:35;;;;;;;21.42;15.30;;;;;;;15.21;85.50;101986.47;5020230;28;20037;-81
2022/09/11 07:29:01;;;;;;;24.83;18.65;;;;;;;15.24;86.99;101993.41;5005930;28;20116;-82
2022/09/11 07:31:31;;;;;;;27.55;19.55;;;;;;;15.27;88.19;101998.56;5020137;28;20240;-83
2022/09/11 07:33:58;;;;;;;17.27;14.75;;;;;;;15.29;88.17;101989.63;5011650;28;20044;-82
2022/09/11 07:36:29;;;;;;;20.40;16.83;;;;;;;15.31;87.83;101995.69;5042119;28;20020;-81
2022/09/11 07:38:55;;;;;;;19.65;16.38;;;;;;;15.34;88.02;101997.38;4998423;28;20034;-82
2022/09/11 07:41:22;;;;;;;26.48;19.70;;;;;;;15.36;89.50;102000.81;5034833;28;20224;-82
2022/09/11 07:43:55;;;;;;;18.33;15.00;;;;;;;15.39;89.48;101999.81;5027259;28;20025;-82
2022/09/11 07:46:21;;;;;;;19.42;16.27;;;;;;;15.43;89.30;102004.06;5017859;28;20065;-82
2022/09/11 07:48:46;;;;;;;22.58;16.80;;;;;;;15.45;90.78;102010.13;5013504;28;20042;-82
2022/09/11 07:51:14;;;;;;;17.60;14.63;;;;;;;15.47;90.88;101998.56;5020864;28;20303;-82
2022/09/11 07:53:45;;;;;;;16.33;14.32;;;;;;;15.51;90.79;102004.56;5035784;28;20272;-82
2022/09/11 07:56:13;;;;;;;18.55;15.82;;;;;;;15.54;91.59;102000.00;4987706;28;20030;-82
2022/09/11 07:58:40;;;;;;;;;;;;;;;15.57;91.57;101998.16;5017589;28;20031;-82
2022/09/11 08:01:08;;;;;;;18.15;14.77;;;;;;;15.62;91.32;101997.03;5009040;28;19999;-82
2022/09/11 08:03:34;;;;;;;22.67;17.27;;;;;;;15.65;91.41;102007.47;5024165;28;20073;-82
2022/09/11 08:06:02;;;;;;;22.85;17.52;;;;;;;15.69;91.72;102000.28;5016230;28;20029;-82
2022/09/11 08:08:28;;;;;;;18.65;13.50;;;;;;;15.73;91.56;102005.38;5011358;28;20046;-82
2022/09/11 08:11:09;;;;;;;21.75;15.48;;;;;;;15.74;91.49;102003.59;5001587;28;20333;-82
2022/09/11 08:13:34;;;;;;;16.63;14.63;;;;;;;15.77;91.63;102008.78;5019137;28;20021;-82
2022/09/11 08:16:00;;;;;;;16.40;12.45;;;;;;;15.79;91.71;102013.94;4997444;28;20043;-82
2022/09/11 08:18:27;;;;;;;12.60;10.63;;;;;;;15.82;91.54;102013.81;5020400;28;20109;-82
2022/09/11 08:20:53;;;;;;;12.63;11.32;;;;;;;15.83;91.46;102005.00;5011908;28;20063;-82
2022/09/11 08:23:20;;;;;;;15.50;10.75;;;;;;;15.85;91.91;102009.28;5037247;28;20037;-81
2022/09/11 08:25:46;;;;;;;11.80;9.43;;;;;;;15.88;91.48;102009.16;4992152;28;20029;-82
2022/09/11 08:28:11;;;;;;;11.52;10.25;;;;;;;15.90;91.67;102006.44;5027777;28;20298;-82
2022/09/11 08:30:37;;;;;;;19.67;12.88;;;;;;;15.95;91.25;102012.34;5000933;28;20261;-82
2022/09/11 08:33:04;;;;;;;12.90;11.50;;;;;;;15.98;91.28;102014.88;5049467;28;20347;-82
2022/09/11 08:35:30;;;;;;;15.27;12.70;;;;;;;16.00;90.92;102020.94;5025526;28;20041;-82
2022/09/11 08:37:57;;;;;;;14.43;11.80;;;;;;;16.01;90.91;102014.72;5002017;28;20039;-81
2022/09/11 08:40:23;;;;;;;17.77;15.93;;;;;;;16.05;91.08;102016.31;4981544;28;20033;-82
2022/09/11 08:42:51;;;;;;;16.77;14.02;;;;;;;16.09;91.44;102019.66;5011058;28;20086;-82
2022/09/11 08:45:19;;;;;;;13.73;11.43;;;;;;;16.11;90.51;102021.31;4982106;28;20038;-82
2022/09/11 08:47:50;;;;;;;17.27;12.77;;;;;;;16.11;90.30;102023.94;5000350;28;20501;-82
2022/09/11 08:50:16;;;;;;;15.60;13.32;;;;;;;16.15;90.56;102026.47;5033738;28;20377;-82
2022/09/11 08:52:43;;;;;;;11.07;10.05;;;;;;;16.19;90.40;102026.25;5028752;28;20045;-82
2022/09/11 08:55:13;;;;;;;10.55;9.55;;;;;;;16.22;89.63;102025.25;4990758;28;20164;-81
2022/09/11 08:57:57;;;;;;;13.07;9.38;;;;;;;16.27;90.77;102032.03;5030190;28;20116;-82
2022/09/11 09:00:30;;;;;;;10.35;9.00;;;;;;;16.31;90.60;102024.84;5011885;28;20329;-82
2022/09/11 09:03:11;;;;;;;11.27;8.48;;;;;;;16.41;90.38;102030.53;5044649;28;20075;-82
2022/09/11 09:05:49;;;;;;;8.82;8.05;;;;;;;16.46;90.40;102031.19;5020847;28;21148;-82
2022/09/11 09:08:50;;;;;;;7.85;7.15;;;;;;;16.50;90.04;102032.78;5007991;28;20136;-82
2022/09/11 09:11:19;;;;;;;8.90;7.57;;;;;;;16.57;91.37;102031.56;5022959;28;20272;-82
2022/09/11 09:13:53;;;;;;;6.65;6.07;;;;;;;16.66;90.34;102036.44;5013749;28;20038;-82
2022/09/11 09:17:23;;;;;;;7.70;5.20;;;;;;;16.70;89.72;102032.69;5018729;28;20173;-82
2022/09/11 09:20:04;;;;;;;6.97;6.00;;;;;;;16.77;89.18;102042.97;4970682;28;20077;-82
2022/09/11 09:22:55;;;;;;;6.38;5.30;;;;;;;16.85;88.91;102043.50;5010224;28;20033;-82
2022/09/11 09:25:22;;;;;;;6.78;4.60;;;;;;;16.86;87.64;102032.84;5006670;28;20030;-82
2022/09/11 09:27:53;;;;;;;6.83;5.13;;;;;;;16.92;87.43;102047.56;5027580;28;20124;-82
2022/09/11 09:30:23;;;;;;;5.50;4.95;;;;;;;16.96;86.85;102045.63;5049430;28;20031;-82
2022/09/11 09:33:01;;;;;;;5.90;5.30;;;;;;;17.00;86.80;102039.25;5032716;28;20060;-82
2022/09/11 09:35:40;;;;;;;;;;;;;;;17.05;86.77;102037.25;5015027;28;20025;-82
2022/09/11 09:38:28;;;;;;;4.40;4.10;;;;;;;17.10;86.76;102040.53;5017435;28;19955;-82
2022/09/11 09:41:02;;;;;;;6.97;4.97;;;;;;;17.12;85.71;102041.31;5015336;28;20037;-82
2022/09/11 09:44:07;;;;;;;7.57;5.07;;;;;;;17.16;85.25;102049.97;5011858;28;20382;-82
2022/09/11 09:46:40;;;;;;;6.47;4.68;;;;;;;17.19;84.45;102049.78;5015669;28;20025;-82
2022/09/11 09:49:13;;;;;;;5.20;4.70;;;;;;;17.25;84.78;102052.16;5028168;28;20033;-82
2022/09/11 09:51:39;;;;;;;5.05;4.28;;;;;;;17.38;84.62;102042.66;5015168;28;20029;-82
2022/09/11 09:54:09;;;;;;;4.65;4.25;;;;;;;17.50;84.37;102048.25;5031464;28;20033;-81
2022/09/11 09:56:36;;;;;;;5.38;4.30;;;;;;;17.56;84.14;102040.03;5014772;28;20033;-82
2022/09/11 09:59:16;;;;;;;4.78;4.38;;;;;;;17.62;84.29;102042.34;5013675;28;20355;-82
2022/09/11 10:01:46;;;;;;;6.00;5.10;;;;;;;17.67;83.53;102042.97;5014650;28;20025;-82
2022/09/11 10:04:26;;;;;;;5.07;4.57;;;;;;;17.69;83.29;102041.09;4999197;28;20033;-82
2022/09/11 10:07:04;;;;;;;4.57;4.18;;;;;;;17.71;83.14;102039.22;5028860;28;20220;-82
2022/09/11 10:09:30;;;;;;;8.57;4.55;;;;;;;17.77;84.00;102040.69;5014440;28;20083;-81
2022/09/11 10:12:00;;;;;;;5.80;5.18;;;;;;;17.80;83.93;102029.94;5016804;28;20025;-82
2022/09/11 10:14:27;;;;;;;5.45;4.28;;;;;;;17.82;83.20;102036.84;5021558;28;20029;-82
2022/09/11 10:16:53;;;;;;;4.47;4.15;;;;;;;17.89;83.27;102028.63;5013208;28;20037;-81
2022/09/11 10:19:41;;;;;;;8.35;4.70;;;;;;;17.96;84.34;102028.22;5010690;28;20033;-82
2022/09/11 10:22:28;;;;;;;4.88;4.20;;;;;;;18.00;83.55;102032.41;5015893;28;20069;-82
2022/09/11 10:25:15;;;;;;;4.65;4.20;;;;;;;17.99;81.57;102032.50;5016418;28;20033;-82
2022/09/11 10:28:10;;;;;;;7.38;4.72;;;;;;;17.98;81.94;102033.44;5031658;28;20030;-81
2022/09/11 10:30:38;;;;;;;9.60;4.82;;;;;;;17.95;81.51;102030.94;5043616;28;20090;-82
2022/09/11 10:33:19;;;;;;;6.45;4.35;;;;;;;17.92;81.56;102037.28;5012525;28;20073;-82
2022/09/11 10:35:50;;;;;;;8.20;3.22;;;;;;;17.91;81.23;102034.72;5007595;28;20436;-81
2022/09/11 10:38:18;;;;;;;4.28;2.85;;;;;;;17.89;81.34;102028.63;5009445;28;20249;-81
2022/09/11 10:41:01;;;;;;;6.20;3.05;;;;;;;17.87;81.65;102031.38;5005284;28;20366;-81
2022/09/11 10:43:40;;;;;;;3.90;3.60;;;;;;;17.86;81.37;102031.44;5002196;28;20105;-82
2022/09/11 10:46:23;;;;;;;5.90;3.60;;;;;;;17.83;81.00;102025.34;5009613;28;20025;-81
2022/09/11 10:49:08;;;;;;;5.05;3.67;;;;;;;17.86;79.23;102027.00;5016590;28;20036;-82
2022/09/11 10:51:36;;;;;;;3.67;3.38;;;;;;;17.90;79.70;102022.38;5033286;28;20029;-81
2022/09/11 10:54:25;;;;;;;;;;;;;;;17.94;79.74;102029.25;5034297;28;20037;-81
2022/09/11 10:57:03;;;;;;;;;;;;;;;17.98;78.98;102022.84;5015910;28;20335;-82
2022/09/11 10:59:41;;;;;;;4.57;3.80;;;;;;;18.03;79.60;102026.13;5025597;28;20115;-81
2022/09/11 11:02:23;;;;;;;3.40;3.20;;;;;;;18.09;79.62;102016.97;5017553;28;20212;-81
2022/09/11 11:04:49;;;;;;;4.78;3.22;;;;;;;18.14;81.03;102015.78;5026632;28;20084;-82
2022/09/11 11:07:39;;;;;;;4.22;2.85;;;;;;;18.19;80.29;102011.09;4985635;28;20041;-82
2022/09/11 11:10:04;;;;;;;2.63;2.42;;;;;;;18.29;82.58;102007.94;5003532;28;20056;-81
2022/09/11 11:12:49;;;;;;;6.13;2.47;;;;;;;18.35;82.74;102010.25;5017431;28;20034;-81
2022/09/11 11:15:34;;;;;;;4.18;2.85;;;;;;;18.44;81.05;102012.38;5035916;28;20654;-82
2022/09/11 11:18:25;;;;;;;5.65;2.92;;;;;;;18.48;80.70;102008.66;5038092;28;20124;-81
2022/09/11 11:21:15;;;;;;;2.88;2.58;;;;;;;18.57;80.70;102009.91;5012012;28;20276;-81
2022/09/11 11:23:59;;;;;;;4.28;2.53;;;;;;;18.65;80.83;102009.50;5008623;28;20048;-81
2022/09/11 11:27:03;;;;;;;3.35;2.80;;;;;;;18.69;80.81;102011.03;5014931;28;20040;-82
2022/09/11 11:29:49;;;;;;;3.28;2.38;;;;;;;18.70;80.65;102008.28;5011758;28;20032;-82
2022/09/11 11:32:40;;;;;;;2.80;2.58;;;;;;;18.72;79.77;102006.41;5014789;28;20037;-82
2022/09/11 11:35:24;;;;;;;2.50;1.95;;;;;;;18.74;80.36;102004.53;5031972;28;20036;-81
2022/09/11 11:38:01;;;;;;;1.95;1.85;;;;;;;18.78;81.13;102011.34;5020658;28;20298;-82
2022/09/11 11:40:31;;;;;;;2.42;2.08;;;;;;;18.83;81.08;102005.84;5017219;28;20037;-81
2022/09/11 11:43:05;;;;;;;1.83;1.70;;;;;;;18.91;81.57;102000.09;5019392;28;20036;-82
2022/09/11 11:45:51;;;;;;;1.85;1.73;;;;;;;18.97;81.03;102005.03;5017040;28;20041;-81